Time;durP1;ratioP1;P1;durP2;ratioP2;P2;SDS_P1;SDS_P2;PMS_P1;PMS_P2;Temp;Humidity;BMP_temperature;BMP_pressure;BME280_temperature;BME280_humidity;BME280_pressure;Samples;Min_cycle;Max_cycle;Signal;HPM_P1;HPM_P2
2022/10/02 00:00:50;;;;;;;42.42;13.15;;;;;;;-146.58;100.00;69501.63;4992594;28;20022;-61
2022/10/02 00:03:22;;;;;;;36.85;10.15;;;;;;;-146.58;100.00;69501.63;4990872;28;20030;-61
2022/10/02 00:05:54;;;;;;;33.00;9.77;;;;;;;-146.58;100.00;69501.63;4992521;28;20022;-61
2022/10/02 00:08:29;;;;;;;31.27;10.63;;;;;;;-146.58;100.00;69501.63;4991262;28;20026;-61
2022/10/02 00:11:07;;;;;;;23.25;7.53;;;;;;;-146.58;100.00;69501.63;4991849;28;20540;-61
2022/10/02 00:13:48;;;;;;;38.22;12.10;;;;;;;-146.58;100.00;69501.63;4991831;28;20097;-62
2022/10/02 00:16:27;;;;;;;34.67;11.40;;;;;;;-146.58;100.00;69501.63;4991829;28;20088;-61
2022/10/02 00:18:55;;;;;;;25.02;9.15;;;;;;;-146.58;100.00;69501.63;4991633;28;20042;-61
2022/10/02 00:21:39;;;;;;;22.15;9.45;;;;;;;-146.58;100.00;69501.63;4992519;28;20030;-62
2022/10/02 00:24:10;;;;;;;35.42;9.95;;;;;;;-146.58;100.00;69501.63;4990250;28;20125;-62
2022/10/02 00:26:46;;;;;;;32.20;12.65;;;;;;;-146.58;100.00;69501.63;4992563;28;20541;-62
2022/10/02 00:29:23;;;;;;;32.95;8.50;;;;;;;-146.58;100.00;69501.63;4990499;28;20046;-62
2022/10/02 00:32:19;;;;;;;50.65;12.25;;;;;;;-146.58;100.00;69501.63;4991997;28;20046;-61
2022/10/02 00:35:02;;;;;;;48.08;10.43;;;;;;;-146.58;100.00;69501.63;4991180;28;20038;-61
2022/10/02 00:37:28;;;;;;;37.03;11.82;;;;;;;-146.58;100.00;69501.63;4992035;28;20049;-62
2022/10/02 00:40:38;;;;;;;33.50;10.93;;;;;;;-146.58;100.00;69501.63;4990665;28;20042;-61
2022/10/02 00:43:20;;;;;;;28.20;11.43;;;;;;;-146.58;100.00;69501.63;4976319;28;20038;-61
2022/10/02 00:46:09;;;;;;;50.08;11.57;;;;;;;-146.58;100.00;69501.63;4990998;28;20172;-62
2022/10/02 00:48:47;;;;;;;31.65;11.10;;;;;;;-146.58;100.00;69501.63;4990201;28;20050;-61
2022/10/02 00:51:31;;;;;;;35.30;9.80;;;;;;;-146.58;100.00;69501.63;4991407;28;20037;-62
2022/10/02 00:54:14;;;;;;;32.97;9.35;;;;;;;-146.58;100.00;69501.63;4990437;28;20123;-62
2022/10/02 00:57:11;;;;;;;24.48;9.73;;;;;;;-146.58;100.00;69501.63;4992064;28;20054;-62
2022/10/02 01:00:00;;;;;;;38.80;11.70;;;;;;;-146.58;100.00;69501.63;4990446;28;20085;-63
2022/10/02 01:02:25;;;;;;;35.35;9.98;;;;;;;-146.58;100.00;69501.63;4991588;28;20033;-65
2022/10/02 01:04:51;;;;;;;36.08;11.07;;;;;;;11.08;100.00;163462.28;4988706;28;20125;-61
2022/10/02 01:07:17;;;;;;;45.95;13.05;;;;;;;11.05;100.00;163454.22;4991670;28;20046;-62
2022/10/02 01:09:44;;;;;;;31.38;11.38;;;;;;;10.99;100.00;163437.97;4990270;28;20045;-61
2022/10/02 01:12:10;;;;;;;41.15;13.25;;;;;;;11.10;100.00;163466.31;4991745;28;20025;-61
2022/10/02 01:14:38;;;;;;;37.47;11.38;;;;;;;11.08;100.00;163462.28;4989828;28;20120;-64
2022/10/02 01:17:18;;;;;;;29.05;12.60;;;;;;;11.08;100.00;163460.97;4991196;28;20093;-64
2022/10/02 01:19:43;;;;;;;29.17;11.75;;;;;;;11.09;100.00;163465.00;4989832;28;20096;-64
2022/10/02 01:22:39;;;;;;;45.53;13.40;;;;;;;11.10;100.00;163467.72;4991679;28;20045;-63
2022/10/02 01:25:06;;;;;;;36.63;11.10;;;;;;;11.16;100.00;163482.56;4989821;28;20035;-62
2022/10/02 01:27:33;;;;;;;29.33;10.48;;;;;;;11.17;100.00;163483.91;4992010;28;20026;-63
2022/10/02 01:30:06;;;;;;;41.70;13.43;;;;;;;11.23;100.00;163500.09;4990354;28;20121;-62
2022/10/02 01:32:34;;;;;;;52.15;12.00;;;;;;;11.25;100.00;163505.50;4990874;28;20077;-63
2022/10/02 01:35:00;;;;;;;40.28;13.05;;;;;;;11.34;100.00;163529.84;4990078;28;20066;-63
2022/10/02 01:37:30;;;;;;;27.90;8.20;;;;;;;11.48;100.00;163564.94;4991386;28;20061;-63
2022/10/02 01:40:00;;;;;;;27.98;7.60;;;;;;;11.58;100.00;163146.53;4989966;28;20050;-63
2022/10/02 01:42:26;;;;;;;23.45;6.00;;;;;;;11.59;100.00;162359.50;4994989;28;20433;-63
2022/10/02 01:44:51;;;;;;;20.60;6.60;;;;;;;11.65;100.00;161713.25;4994117;28;20089;-63
2022/10/02 01:47:52;;;;;;;27.63;7.05;;;;;;;11.65;100.00;161787.91;4994485;28;20092;-63
2022/10/02 01:50:37;;;;;;;18.45;5.72;;;;;;;11.70;100.00;162227.22;4981473;28;20042;-63
2022/10/02 01:53:15;;;;;;;13.18;5.35;;;;;;;11.68;100.00;162946.63;4956260;28;20106;-63
2022/10/02 01:55:56;;;;;;;;;;;;;;;11.77;100.00;163283.59;4984091;28;20409;-62
2022/10/02 01:58:28;;;;;;;15.40;4.07;;;;;;;11.74;100.00;163633.81;4993197;28;19958;-62
2022/10/02 02:01:10;;;;;;;15.45;3.97;;;;;;;11.72;100.00;163629.78;4993746;28;20128;-62
2022/10/02 02:03:46;;;;;;;13.77;5.80;;;;;;;11.70;100.00;163624.38;4993541;28;20061;-62
2022/10/02 02:06:26;;;;;;;14.10;3.80;;;;;;;11.65;100.00;163610.88;4993391;28;20029;-63
2022/10/02 02:09:09;;;;;;;16.65;4.50;;;;;;;11.58;100.00;163591.91;4992523;28;20092;-63
2022/10/02 02:11:40;;;;;;;13.77;3.28;;;;;;;11.50;100.00;163570.34;4994694;28;20035;-63
2022/10/02 02:14:29;;;;;;;3.67;2.08;;;;;;;11.42;100.00;163551.44;4992891;28;20379;-63
2022/10/02 02:17:31;;;;;;;11.07;2.72;;;;;;;11.31;100.00;163521.72;4993800;28;20031;-62
2022/10/02 02:20:07;;;;;;;5.93;3.25;;;;;;;11.21;100.00;163494.69;4974753;28;20121;-62
2022/10/02 02:22:39;;;;;;;14.93;5.40;;;;;;;11.17;100.00;163483.91;4994729;28;20057;-62
2022/10/02 02:25:16;;;;;;;7.57;2.65;;;;;;;11.13;100.00;163474.44;4993149;28;20046;-62
2022/10/02 02:27:45;;;;;;;6.68;3.60;;;;;;;11.07;100.00;163459.59;4994811;28;20366;-62
2022/10/02 02:30:11;;;;;;;;;;;;;;;11.03;100.00;163447.44;4992289;28;20409;-62
2022/10/02 02:32:42;;;;;;;24.75;5.05;;;;;;;10.99;100.00;163437.97;4993421;28;20029;-62
2022/10/02 02:35:26;;;;;;;15.30;3.90;;;;;;;10.97;100.00;163431.22;4993071;28;20085;-61
2022/10/02 02:37:58;;;;;;;9.13;5.47;;;;;;;10.94;100.00;163424.50;4994713;28;20022;-62
2022/10/02 02:40:28;;;;;;;17.45;3.67;;;;;;;10.94;100.00;163424.50;4992547;28;20066;-62
2022/10/02 02:43:01;;;;;;;12.02;4.95;;;;;;;10.97;100.00;163432.63;4993737;28;20031;-62
2022/10/02 02:45:36;;;;;;;20.73;5.28;;;;;;;11.01;100.00;163443.38;4991671;28;20421;-62
2022/10/02 02:48:08;;;;;;;18.98;4.70;;;;;;;11.07;100.00;163458.25;4994336;28;20104;-62
2022/10/02 02:50:40;;;;;;;14.68;6.25;;;;;;;11.06;100.00;163456.88;4992542;28;20043;-62
2022/10/02 02:53:40;;;;;;;16.63;4.18;;;;;;;11.01;100.00;163443.38;4993160;28;20034;-62
2022/10/02 02:56:09;;;;;;;16.55;6.68;;;;;;;11.02;100.00;163446.09;4992684;28;20088;-62
2022/10/02 02:58:46;;;;;;;20.02;7.85;;;;;;;11.04;100.00;163451.50;4992957;28;20089;-62
2022/10/02 03:01:12;;;;;;;20.93;7.57;;;;;;;11.06;100.00;163456.88;4993509;28;20478;-63
2022/10/02 03:03:38;;;;;;;12.43;5.90;;;;;;;11.15;100.00;163478.47;4992699;28;20100;-62
2022/10/02 03:06:15;;;;;;;24.52;6.25;;;;;;;11.10;100.00;163467.72;4993874;28;20109;-62
2022/10/02 03:08:42;;;;;;;21.42;8.23;;;;;;;11.02;100.00;163444.78;4991018;28;20133;-62
2022/10/02 03:11:21;;;;;;;16.45;5.90;;;;;;;10.94;100.00;163424.50;4993375;28;20022;-61
2022/10/02 03:14:08;;;;;;;21.92;7.18;;;;;;;-146.58;100.00;69501.63;4992617;28;20578;-61
2022/10/02 03:17:07;;;;;;;27.40;8.95;;;;;;;-146.58;100.00;69501.63;4994119;28;20068;-61
2022/10/02 03:19:41;;;;;;;;;;;;;;;-146.58;100.00;69501.63;4993225;28;20038;-61
2022/10/02 03:22:41;;;;;;;23.50;12.35;;;;;;;-146.58;100.00;69501.63;4992492;28;19909;-62
2022/10/02 03:25:12;;;;;;;24.90;15.30;;;;;;;-146.58;100.00;69501.63;4991936;28;20049;-61
2022/10/02 03:27:59;;;;;;;37.25;18.67;;;;;;;-146.58;100.00;69501.63;4993622;28;20433;-61
2022/10/02 03:30:26;;;;;;;29.42;16.98;;;;;;;-146.58;100.00;69501.63;4991602;28;20129;-61
2022/10/02 03:32:55;;;;;;;35.85;18.95;;;;;;;-146.58;100.00;69501.63;4993590;28;20058;-62
2022/10/02 03:35:22;;;;;;;51.92;23.27;;;;;;;-146.58;100.00;69501.63;4991393;28;20049;-62
2022/10/02 03:37:51;;;;;;;48.83;26.15;;;;;;;-146.58;100.00;69501.63;4993084;28;20038;-62
2022/10/02 03:40:21;;;;;;;47.35;24.80;;;;;;;-146.58;100.00;69501.63;4991775;28;20042;-63
2022/10/02 03:42:46;;;;;;;37.15;25.40;;;;;;;-146.58;100.00;69501.63;4993421;28;20034;-63
2022/10/02 03:45:11;;;;;;;46.13;28.00;;;;;;;-146.58;100.00;69501.63;4991399;28;20425;-63
2022/10/02 03:47:36;;;;;;;51.35;33.35;;;;;;;-146.58;100.00;69501.63;4993299;28;20027;-63
2022/10/02 03:50:02;;;;;;;70.78;32.72;;;;;;;-146.58;100.00;69501.63;4991110;28;20046;-63
2022/10/02 03:52:30;;;;;;;54.20;30.63;;;;;;;-146.58;100.00;69501.63;4992669;28;20075;-63
2022/10/02 03:55:02;;;;;;;61.05;32.85;;;;;;;-146.58;100.00;69501.63;4991713;28;20045;-61
2022/10/02 03:57:32;;;;;;;52.22;30.48;;;;;;;-146.58;100.00;69501.63;4993367;28;20022;-61
2022/10/02 04:00:11;;;;;;;66.32;30.75;;;;;;;-146.58;100.00;69501.63;4991252;28;20049;-61
2022/10/02 04:02:48;;;;;;;59.30;32.20;;;;;;;-146.58;100.00;69501.63;4992271;28;20032;-61
2022/10/02 04:05:47;;;;;;;55.92;31.75;;;;;;;-146.58;100.00;69501.63;4971827;28;20062;-61
2022/10/02 04:08:19;;;;;;;64.97;30.50;;;;;;;-146.58;100.00;69501.63;4971892;28;20477;-61
2022/10/02 04:11:00;;;;;;;48.15;31.77;;;;;;;10.87;100.00;163406.91;4984370;28;20106;-61
2022/10/02 04:13:45;;;;;;;51.95;30.10;;;;;;;11.30;100.00;163250.78;4990367;28;20030;-61
2022/10/02 04:16:17;;;;;;;56.38;30.88;;;;;;;11.31;100.00;162882.97;4992825;28;20038;-62
2022/10/02 04:18:54;;;;;;;63.35;33.83;;;;;;;11.31;100.00;162247.09;4991464;28;20065;-61
2022/10/02 04:21:33;;;;;;;56.63;30.83;;;;;;;11.34;100.00;162209.56;4991938;28;20034;-61
2022/10/02 04:24:08;;;;;;;57.58;31.80;;;;;;;11.33;100.00;162208.22;4991568;28;20031;-61
2022/10/02 04:26:39;;;;;;;53.88;31.60;;;;;;;11.36;100.00;161679.94;4992663;28;20033;-61
2022/10/02 04:29:20;;;;;;;52.13;26.85;;;;;;;11.36;100.00;161070.53;4989802;28;20121;-59
2022/10/02 04:32:09;;;;;;;67.20;32.50;;;;;;;11.47;100.00;160609.16;4991569;28;20046;-60
2022/10/02 04:34:35;;;;;;;51.92;27.98;;;;;;;11.53;100.00;159196.13;4990929;28;20042;-60
2022/10/02 04:37:26;;;;;;;62.75;30.77;;;;;;;11.52;100.00;159489.19;4991386;28;20026;-61
2022/10/02 04:40:07;;;;;;;48.65;27.13;;;;;;;11.51;100.00;159988.13;4971464;28;20121;-61
2022/10/02 04:43:06;;;;;;;44.40;22.80;;;;;;;11.51;100.00;160014.41;4973219;28;20101;-61
2022/10/02 04:46:10;;;;;;;59.25;26.27;;;;;;;11.58;100.00;159115.28;4971352;28;20486;-62
2022/10/02 04:48:58;;;;;;;57.38;25.25;;;;;;;11.62;100.00;158566.25;4970222;28;20045;-61
2022/10/02 04:52:00;;;;;;;57.75;23.92;;;;;;;11.61;100.00;158473.78;4972457;28;20034;-61
2022/10/02 04:54:55;;;;;;;59.28;25.00;;;;;;;11.63;100.00;158343.59;4949472;28;20078;-61
2022/10/02 04:57:43;;;;;;;60.47;26.58;;;;;;;11.61;100.00;159271.16;4953077;29;20137;-61
2022/10/02 05:00:14;;;;;;;51.28;22.45;;;;;;;11.55;100.00;160334.59;4983714;28;20506;-61
2022/10/02 05:03:02;;;;;;;42.60;20.25;;;;;;;11.52;100.00;161108.94;4992001;28;20501;-61
2022/10/02 05:05:47;;;;;;;59.72;23.67;;;;;;;11.54;100.00;161487.53;4990291;28;20038;-61
2022/10/02 05:08:21;;;;;;;46.00;18.70;;;;;;;11.49;100.00;161988.50;4990562;28;20041;-61
2022/10/02 05:11:14;;;;;;;53.42;19.67;;;;;;;11.43;100.00;162362.19;4991882;28;20030;-60
2022/10/02 05:14:11;;;;;;;59.90;21.42;;;;;;;11.42;100.00;162752.19;4989363;28;20430;-59
2022/10/02 05:16:54;;;;;;;51.25;21.98;;;;;;;11.40;100.00;162744.03;4990853;28;20058;-59
2022/10/02 05:19:45;;;;;;;44.70;20.10;;;;;;;11.38;100.00;163027.69;4989233;28;20065;-59
2022/10/02 05:22:25;;;;;;;55.08;21.20;;;;;;;11.36;100.00;163338.84;4990679;28;20041;-59
2022/10/02 05:25:10;;;;;;;56.40;21.75;;;;;;;11.36;100.00;163499.25;4972753;28;20053;-59
2022/10/02 05:28:10;;;;;;;63.30;21.95;;;;;;;11.32;100.00;163466.34;4988922;28;20397;-59
2022/10/02 05:30:48;;;;;;;48.15;19.17;;;;;;;11.37;100.00;162907.41;4982513;28;20112;-59
2022/10/02 05:33:31;;;;;;;46.28;21.02;;;;;;;11.39;100.00;162652.88;4987856;28;20482;-58
2022/10/02 05:36:02;;;;;;;42.10;18.63;;;;;;;11.45;100.00;162033.06;4988412;28;20072;-59
2022/10/02 05:38:53;;;;;;;46.40;18.77;;;;;;;11.46;100.00;161568.50;4988625;28;20038;-59
2022/10/02 05:41:39;;;;;;;50.38;21.85;;;;;;;11.48;100.00;160943.53;4989310;28;20101;-59
2022/10/02 05:44:11;;;;;;;45.28;20.67;;;;;;;11.46;100.00;160965.84;4988628;28;20613;-59
2022/10/02 05:46:49;;;;;;;43.72;18.08;;;;;;;11.46;100.00;160965.84;4990772;28;20045;-59
2022/10/02 05:49:19;;;;;;;54.55;20.63;;;;;;;12.16;100.00;163743.31;4988194;28;20046;-59
2022/10/02 05:51:59;;;;;;;51.95;18.00;;;;;;;11.53;100.00;163578.41;4990619;28;20121;-61
2022/10/02 05:54:55;;;;;;;43.20;19.67;;;;;;;11.52;100.00;163577.09;4987567;28;20054;-62
2022/10/02 05:57:34;;;;;;;54.20;18.90;;;;;;;11.55;100.00;163583.84;4989539;28;20034;-61
2022/10/02 06:00:03;;;;;;;52.58;18.15;;;;;;;11.58;100.00;163591.91;4987921;28;20038;-61
2022/10/02 06:02:40;;;;;;;51.22;17.45;;;;;;;11.62;100.00;163601.38;4990620;28;20026;-61
2022/10/02 06:05:16;;;;;;;46.53;19.15;;;;;;;11.63;100.00;163605.47;4999858;28;20042;-61
2022/10/02 06:07:44;;;;;;;46.15;17.48;;;;;;;11.65;100.00;163609.50;5007418;28;20029;-62
2022/10/02 06:10:16;;;;;;;51.50;18.88;;;;;;;11.69;100.00;163620.31;4996946;28;20528;-62
2022/10/02 06:12:52;;;;;;;55.10;17.75;;;;;;;11.75;100.00;163637.84;4986568;28;20436;-62
2022/10/02 06:15:36;;;;;;;57.67;20.25;;;;;;;11.82;100.00;162976.03;4987626;28;20477;-61
2022/10/02 06:18:06;;;;;;;46.17;16.77;;;;;;;11.85;100.00;161277.06;4989870;28;20053;-61
2022/10/02 06:20:46;;;;;;;48.78;19.25;;;;;;;11.90;100.00;159428.97;4973930;28;20065;-62
2022/10/02 06:23:17;;;;;;;58.78;20.33;;;;;;;11.85;100.00;158452.25;4981843;28;20580;-61
2022/10/02 06:25:50;;;;;;;53.20;17.88;;;;;;;11.94;100.00;157656.22;4969702;28;20446;-61
2022/10/02 06:28:36;;;;;;;49.05;19.80;;;;;;;11.96;100.00;157299.28;4971994;28;20034;-61
2022/10/02 06:31:31;;;;;;;66.13;20.63;;;;;;;11.95;100.00;157150.19;4974249;28;20046;-59
2022/10/02 06:33:56;;;;;;;54.97;19.15;;;;;;;12.02;100.00;156275.66;4978504;28;20049;-59
2022/10/02 06:36:41;;;;;;;60.92;18.67;;;;;;;12.06;100.00;155224.78;4993766;28;20038;-59
2022/10/02 06:39:38;;;;;;;64.47;20.40;;;;;;;12.20;100.00;152782.44;4992186;28;20131;-60
2022/10/02 06:42:37;;;;;;;45.72;19.73;;;;;;;12.31;100.00;149982.19;4991886;28;20041;-59
2022/10/02 06:45:30;;;;;;;54.17;20.83;;;;;;;12.42;100.00;147886.78;4992357;28;20045;-59
2022/10/02 06:48:31;;;;;;;62.58;21.00;;;;;;;12.45;100.00;146835.63;4993723;28;20505;-59
2022/10/02 06:51:11;;;;;;;53.00;21.17;;;;;;;12.52;100.00;145791.78;4991511;28;20578;-59
2022/10/02 06:53:51;;;;;;;49.25;22.38;;;;;;;12.58;100.00;145453.00;4991646;28;20516;-59
2022/10/02 06:56:56;;;;;;;54.65;20.13;;;;;;;12.60;100.00;145457.81;4991395;28;20129;-59
2022/10/02 06:59:44;;;;;;;67.88;22.75;;;;;;;12.64;100.00;145820.53;4991116;28;20076;-59
2022/10/02 07:02:47;;;;;;;60.70;22.98;;;;;;;12.64;100.00;146172.56;4991979;28;20022;-60
2022/10/02 07:05:34;;;;;;;52.90;20.50;;;;;;;-146.58;100.00;69501.63;4991630;28;20486;-59
2022/10/02 07:08:13;;;;;;;52.85;18.90;;;;;;;-146.58;100.00;69501.63;4991763;28;20042;-59
2022/10/02 07:10:46;;;;;;;57.53;19.98;;;;;;;-146.58;100.00;69501.63;4992011;28;20041;-59
2022/10/02 07:13:45;;;;;;;55.58;19.65;;;;;;;-146.58;100.00;69501.63;4991709;28;20046;-59
2022/10/02 07:16:23;;;;;;;57.78;18.92;;;;;;;-146.58;100.00;69501.63;4993189;28;20042;-59
2022/10/02 07:19:00;;;;;;;;;;;;;;;-146.58;100.00;69501.63;5008244;28;20049;-59
2022/10/02 07:21:34;;;;;;;51.65;20.42;;;;;;;12.86;100.00;146577.56;5012725;28;20019;-59
2022/10/02 07:24:31;;;;;;;49.00;18.45;;;;;;;12.93;100.00;144826.47;5003067;28;20034;-59
2022/10/02 07:27:31;;;;;;;46.40;16.58;;;;;;;12.98;100.00;143778.56;4990232;28;20018;-59
2022/10/02 07:30:07;;;;;;;59.58;20.38;;;;;;;13.04;100.00;143791.56;4993000;28;20117;-59
2022/10/02 07:32:46;;;;;;;49.75;15.55;;;;;;;13.19;100.00;142413.84;4989964;28;20051;-59
2022/10/02 07:35:24;;;;;;;;;;;;;;;13.25;100.00;141720.25;4992745;28;20109;-59
2022/10/02 07:38:04;;;;;;;49.58;14.18;;;;;;;13.32;100.00;141384.47;4984503;28;19940;-59
2022/10/02 07:41:13;;;;;;;40.65;15.65;;;;;;;-146.58;100.00;69501.63;4991431;28;20129;-59
2022/10/02 07:43:57;;;;;;;47.92;11.82;;;;;;;13.32;100.00;141384.47;4974525;28;20506;-59
2022/10/02 07:47:19;;;;;;;33.53;12.32;;;;;;;13.56;100.00;141083.34;5000112;28;20037;-59
2022/10/02 07:49:57;;;;;;;29.10;11.68;;;;;;;13.55;100.00;143554.94;4970035;28;20047;-59
2022/10/02 07:52:53;;;;;;;40.65;11.30;;;;;;;13.66;100.00;144994.25;4976255;28;20397;-59
2022/10/02 07:55:21;;;;;;;30.63;11.07;;;;;;;13.68;100.00;147475.72;4992293;28;20034;-59
2022/10/02 07:57:52;;;;;;;38.03;10.95;;;;;;;13.71;100.00;148544.94;4992002;28;20046;-59
2022/10/02 08:00:21;;;;;;;33.88;9.95;;;;;;;13.80;100.00;148568.13;5002654;28;20032;-60
2022/10/02 08:02:53;;;;;;;30.88;9.30;;;;;;;13.81;100.00;149985.97;4989681;28;20053;-59
2022/10/02 08:05:23;;;;;;;41.97;10.02;;;;;;;13.80;100.00;152463.72;4996742;28;20109;-59
2022/10/02 08:07:53;;;;;;;36.78;9.00;;;;;;;13.96;100.00;153922.06;4995737;28;20037;-59
2022/10/02 08:10:24;;;;;;;30.38;10.32;;;;;;;13.99;100.00;156809.66;4994821;28;20057;-59
2022/10/02 08:12:52;;;;;;;37.55;10.43;;;;;;;14.12;100.00;158046.94;5008002;28;20065;-59
2022/10/02 08:15:19;;;;;;;30.52;8.88;;;;;;;-146.58;100.00;69501.63;5009647;28;20056;-59
2022/10/02 08:17:58;;;;;;;28.13;7.18;;;;;;;-146.58;100.00;69501.63;4985529;28;20077;-59
2022/10/02 08:20:40;;;;;;;24.70;6.97;;;;;;;-146.58;100.00;69501.63;4981196;28;20050;-59
2022/10/02 08:23:15;;;;;;;23.83;6.65;;;;;;;-146.58;100.00;69501.63;4982988;28;20042;-59
2022/10/02 08:26:05;;;;;;;17.98;5.22;;;;;;;14.36;100.00;158645.16;5006788;28;20025;-59
2022/10/02 08:28:41;;;;;;;14.20;5.57;;;;;;;-146.58;100.00;69501.63;4987995;28;20129;-59
2022/10/02 08:31:11;;;;;;;12.80;5.88;;;;;;;-146.58;100.00;69501.63;5000332;28;20073;-60
2022/10/02 08:33:37;;;;;;;15.77;5.05;;;;;;;-146.58;100.00;69501.63;5006822;28;20054;-58
2022/10/02 08:36:31;;;;;;;17.92;6.43;;;;;;;15.70;100.00;164672.59;4998942;28;20034;-59
2022/10/02 08:39:14;;;;;;;19.95;4.57;;;;;;;15.69;100.00;164669.88;4993019;28;20073;-59
2022/10/02 08:41:53;;;;;;;18.13;5.60;;;;;;;15.59;100.00;164641.47;4989145;28;20088;-59
2022/10/02 08:44:24;;;;;;;;;;;;;;;15.64;100.00;164654.97;4993093;28;20038;-59
2022/10/02 08:47:08;;;;;;;26.77;6.30;;;;;;;15.71;100.00;164673.94;4991031;28;20028;-59
2022/10/02 08:50:08;;;;;;;17.77;5.57;;;;;;;15.82;100.00;164702.38;4991368;28;20651;-59
2022/10/02 08:52:55;;;;;;;17.33;7.10;;;;;;;15.74;100.00;164682.06;4971015;28;20043;-59
2022/10/02 08:55:20;;;;;;;24.90;6.60;;;;;;;15.88;100.00;164718.66;4986313;28;20041;-59
2022/10/02 08:57:55;;;;;;;22.85;7.10;;;;;;;16.00;100.00;164751.19;4990116;28;20557;-59
2022/10/02 09:00:21;;;;;;;17.27;4.68;;;;;;;16.16;100.00;164793.16;4996732;28;20045;-59
2022/10/02 09:03:23;;;;;;;19.27;4.47;;;;;;;16.32;100.00;164833.78;5009644;28;20124;-59
2022/10/02 09:06:09;;;;;;;15.07;4.95;;;;;;;16.46;100.00;164870.31;5009382;28;20026;-59
2022/10/02 09:08:43;;;;;;;11.48;3.92;;;;;;;16.74;100.00;164943.50;5007713;28;20072;-59
2022/10/02 09:11:46;;;;;;;13.52;4.50;;;;;;;17.21;100.00;165066.84;5010550;28;20029;-59
2022/10/02 09:14:33;;;;;;;20.30;4.53;;;;;;;17.73;100.00;165205.09;5003253;28;20050;-59
2022/10/02 09:17:35;;;;;;;27.15;6.93;;;;;;;17.82;100.00;165226.78;4991953;28;20046;-59
2022/10/02 09:20:18;;;;;;;23.42;5.32;;;;;;;17.88;100.00;165243.03;4991826;28;20037;-59
2022/10/02 09:22:54;;;;;;;18.27;5.47;;;;;;;17.75;100.00;165210.53;4992100;28;20034;-59
2022/10/02 09:25:31;;;;;;;15.63;5.97;;;;;;;17.26;100.00;165080.38;4991956;28;20034;-59
2022/10/02 09:28:21;;;;;;;11.82;3.85;;;;;;;17.25;100.00;165077.66;5007789;28;20121;-59
2022/10/02 09:31:14;;;;;;;16.02;4.13;;;;;;;17.27;100.00;165084.50;5008672;28;20025;-59
2022/10/02 09:34:11;;;;;;;16.83;3.70;;;;;;;17.21;100.00;165066.84;4989671;28;20521;-59
2022/10/02 09:36:51;;;;;;;17.95;5.88;;;;;;;17.13;100.00;165047.88;4994326;28;20034;-58
2022/10/02 09:39:23;;;;;;;10.25;4.30;;;;;;;17.13;100.00;165047.88;4994241;28;20425;-59
2022/10/02 09:41:51;;;;;;;18.52;6.57;;;;;;;16.96;100.00;165003.19;4988362;28;20421;-59
2022/10/02 09:44:55;;;;;;;10.90;4.07;;;;;;;16.98;100.00;165007.22;4993121;28;20073;-60
2022/10/02 09:48:00;;;;;;;15.43;6.38;;;;;;;17.25;100.00;165077.66;4988293;28;20042;-59
2022/10/02 09:50:37;;;;;;;15.48;4.45;;;;;;;17.44;100.00;165129.19;4982189;28;20030;-59
2022/10/02 09:53:21;;;;;;;8.65;4.18;;;;;;;17.50;100.00;165142.72;4995816;28;20412;-59
2022/10/02 09:56:17;;;;;;;16.90;5.25;;;;;;;17.83;100.00;165229.50;4992308;28;20042;-59
2022/10/02 09:59:04;;;;;;;18.58;5.45;;;;;;;17.50;100.00;165144.06;4991002;28;20053;-60
2022/10/02 10:01:47;;;;;;;14.02;3.50;;;;;;;17.25;100.00;165077.66;4981892;28;20026;-59
2022/10/02 10:04:23;;;;;;;20.83;4.07;;;;;;;17.04;100.00;165023.47;4984564;28;20779;-59
2022/10/02 10:07:12;;;;;;;12.63;4.53;;;;;;;16.89;100.00;164982.78;4993779;28;20037;-59
2022/10/02 10:09:40;;;;;;;;;;;;;;;16.70;100.00;164934.03;4995332;28;20045;-59
2022/10/02 10:12:16;;;;;;;23.45;5.18;;;;;;;16.69;100.00;164931.31;4993390;28;19917;-61
2022/10/02 10:15:14;;;;;;;11.60;3.60;;;;;;;16.89;100.00;164982.78;4994492;28;20030;-60
2022/10/02 10:18:08;;;;;;;20.27;6.10;;;;;;;17.05;100.00;165026.19;4986955;28;20042;-59
2022/10/02 10:20:36;;;;;;;11.23;2.53;;;;;;;17.15;100.00;165050.59;4997806;28;20496;-60
2022/10/02 10:23:11;;;;;;;11.07;3.88;;;;;;;17.32;100.00;165095.31;4989148;28;20068;-60
2022/10/02 10:25:49;;;;;;;16.80;3.38;;;;;;;17.34;100.00;165102.06;4996503;28;20271;-59
2022/10/02 10:29:02;;;;;;;5.32;2.83;;;;;;;17.43;100.00;165126.47;4989283;28;20038;-59
2022/10/02 10:32:02;;;;;;;26.27;5.22;;;;;;;17.58;100.00;165164.44;4995285;28;20583;-58
2022/10/02 10:35:02;;;;;;;7.78;3.67;;;;;;;17.89;100.00;165245.75;5009159;28;20042;-59
2022/10/02 10:40:49;;;;;;;10.15;3.85;;;;;;;18.11;100.00;165302.75;4998996;28;20458;-59
2022/10/02 10:43:40;;;;;;;6.65;2.33;;;;;;;18.25;100.00;165340.72;4992622;28;20096;-59
2022/10/02 10:46:20;;;;;;;13.93;3.95;;;;;;;18.35;100.00;165367.84;4994511;28;20037;-59
2022/10/02 10:49:09;;;;;;;8.02;2.85;;;;;;;18.11;100.00;165304.06;4991419;28;20524;-59
2022/10/02 10:52:02;;;;;;;10.15;3.90;;;;;;;17.70;100.00;165196.94;4992717;28;20048;-58
2022/10/02 10:54:52;;;;;;;10.13;3.13;;;;;;;17.64;100.00;165180.69;4993295;28;20501;-59
2022/10/02 10:57:37;;;;;;;17.77;8.30;;;;;;;17.55;100.00;165156.28;4991867;28;20070;-58
2022/10/02 11:00:42;;;;;;;17.17;4.93;;;;;;;17.53;100.00;165150.88;4992477;28;20616;-59
2022/10/02 11:03:43;;;;;;;13.48;5.85;;;;;;;17.61;100.00;165172.53;4991712;28;20065;-59
2022/10/02 11:06:30;;;;;;;15.43;3.25;;;;;;;17.54;100.00;165153.56;4993288;28;20062;-59
2022/10/02 11:09:38;;;;;;;16.67;3.97;;;;;;;17.56;100.00;165159.00;4991446;28;20046;-58
2022/10/02 11:12:37;;;;;;;9.10;2.90;;;;;;;17.72;100.00;165202.38;4990862;28;20093;-59
2022/10/02 11:15:16;;;;;;;20.13;3.85;;;;;;;17.79;100.00;165218.63;4993061;28;20095;-59
2022/10/02 11:18:01;;;;;;;;;;;;;;;17.74;100.00;165207.81;4992105;28;20132;-59
2022/10/02 11:21:14;;;;;;;9.93;4.20;;;;;;;17.64;100.00;165180.69;4992298;28;19914;-58
2022/10/02 11:23:57;;;;;;;8.55;3.88;;;;;;;17.71;100.00;165199.66;4991325;28;20053;-59
2022/10/02 11:26:47;;;;;;;11.82;3.85;;;;;;;17.77;100.00;165215.91;4993364;28;20149;-58
2022/10/02 11:29:46;;;;;;;14.13;3.92;;;;;;;17.77;100.00;165215.91;4971610;28;20055;-58
2022/10/02 11:32:18;;;;;;;8.60;2.75;;;;;;;17.81;100.00;165224.06;4952949;28;20061;-59
2022/10/02 11:35:03;;;;;;;15.82;5.40;;;;;;;17.71;100.00;165198.31;4960167;28;20467;-59
2022/10/02 11:37:37;;;;;;;9.52;2.72;;;;;;;17.46;100.00;165131.91;4971459;28;20126;-58
2022/10/02 11:40:29;;;;;;;10.30;3.10;;;;;;;17.49;100.00;165141.41;4970173;28;20030;-58
2022/10/02 11:43:32;;;;;;;8.30;2.50;;;;;;;17.49;100.00;165140.03;4976512;28;20046;-58
2022/10/02 11:46:10;;;;;;;21.30;3.95;;;;;;;17.45;100.00;165130.53;4991505;28;20026;-58
2022/10/02 11:49:19;;;;;;;9.70;2.35;;;;;;;17.38;100.00;165112.94;4990530;28;20534;-59
2022/10/02 11:52:08;;;;;;;10.82;2.83;;;;;;;17.17;100.00;165057.38;4989337;28;20037;-58
2022/10/02 11:54:52;;;;;;;5.57;2.50;;;;;;;17.42;100.00;165122.44;4992607;28;20037;-58
2022/10/02 11:57:56;;;;;;;15.60;2.53;;;;;;;17.61;100.00;165172.53;4990881;28;20409;-59
2022/10/02 12:00:55;;;;;;;6.57;2.15;;;;;;;17.93;100.00;165256.59;4931008;29;20102;-58
2022/10/02 12:03:43;;;;;;;10.15;3.55;;;;;;;18.10;100.00;165300.03;4989896;28;20413;-58
2022/10/02 12:06:22;;;;;;;14.45;4.10;;;;;;;18.44;100.00;165389.50;4992250;28;20026;-59
2022/10/02 12:09:10;;;;;;;12.85;4.97;;;;;;;18.76;100.00;165474.97;4991053;28;20042;-58
2022/10/02 12:11:51;;;;;;;9.93;4.05;;;;;;;18.85;100.00;165499.34;4991064;28;20090;-58
2022/10/02 12:14:25;;;;;;;18.30;3.38;;;;;;;18.74;100.00;165468.16;4992144;28;20089;-58